sensor_id;sensor_type;location;lat;lon;timestamp;P1;durP1;ratioP1;P2;durP2;ratioP2
7829;SDS011;3960;51.86894000;5.39848000;2023-04-03T00:00:28;3.92;;;1.75;;
7829;SDS011;3960;51.86894000;5.39848000;2023-04-03T00:02:54;3.75;;;2.10;;
7829;SDS011;3960;51.86894000;5.39848000;2023-04-03T00:05:19;2.53;;;1.77;;
7829;SDS011;3960;51.86894000;5.39848000;2023-04-03T00:07:45;4.10;;;2.00;;
7829;SDS011;3960;51.86894000;5.39848000;2023-04-03T00:10:11;5.47;;;1.90;;
7829;SDS011;3960;51.86894000;5.39848000;2023-04-03T00:12:37;5.88;;;2.13;;
7829;SDS011;3960;51.86894000;5.39848000;2023-04-03T00:15:02;4.20;;;1.70;;
7829;SDS011;3960;51.86894000;5.39848000;2023-04-03T00:17:28;5.57;;;1.83;;
7829;SDS011;3960;51.86894000;5.39848000;2023-04-03T00:19:54;3.67;;;1.73;;
7829;SDS011;3960;51.86894000;5.39848000;2023-04-03T00:22:19;4.07;;;1.80;;
7829;SDS011;3960;51.86894000;5.39848000;2023-04-03T00:24:44;3.40;;;2.30;;
7829;SDS011;3960;51.86894000;5.39848000;2023-04-03T00:27:10;3.10;;;1.73;;
7829;SDS011;3960;51.86894000;5.39848000;2023-04-03T00:29:36;2.97;;;2.00;;
7829;SDS011;3960;51.86894000;5.39848000;2023-04-03T00:32:01;3.00;;;1.80;;
7829;SDS011;3960;51.86894000;5.39848000;2023-04-03T00:34:26;4.30;;;1.98;;
7829;SDS011;3960;51.86894000;5.39848000;2023-04-03T00:36:51;4.35;;;1.88;;
7829;SDS011;3960;51.86894000;5.39848000;2023-04-03T00:39:17;6.38;;;1.75;;
7829;SDS011;3960;51.86894000;5.39848000;2023-04-03T00:41:42;3.90;;;1.80;;
7829;SDS011;3960;51.86894000;5.39848000;2023-04-03T00:47:02;5.82;;;2.05;;
7829;SDS011;3960;51.86894000;5.39848000;2023-04-03T00:49:30;4.05;;;1.90;;
7829;SDS011;3960;51.86894000;5.39848000;2023-04-03T00:51:55;3.97;;;1.80;;
7829;SDS011;3960;51.86894000;5.39848000;2023-04-03T00:54:22;4.57;;;1.95;;
7829;SDS011;3960;51.86894000;5.39848000;2023-04-03T00:56:48;4.13;;;1.88;;
7829;SDS011;3960;51.86894000;5.39848000;2023-04-03T00:59:16;2.83;;;1.80;;
7829;SDS011;3960;51.86894000;5.39848000;2023-04-03T01:01:48;4.00;;;2.00;;
7829;SDS011;3960;51.86894000;5.39848000;2023-04-03T01:07:10;7.03;;;1.80;;
7829;SDS011;3960;51.86894000;5.39848000;2023-04-03T01:09:39;3.65;;;1.80;;
7829;SDS011;3960;51.86894000;5.39848000;2023-04-03T01:14:45;6.47;;;2.13;;
7829;SDS011;3960;51.86894000;5.39848000;2023-04-03T01:17:29;4.25;;;1.88;;
7829;SDS011;3960;51.86894000;5.39848000;2023-04-03T01:22:42;5.05;;;1.90;;
7829;SDS011;3960;51.86894000;5.39848000;2023-04-03T01:25:19;3.85;;;2.00;;
7829;SDS011;3960;51.86894000;5.39848000;2023-04-03T01:27:44;5.25;;;2.30;;
7829;SDS011;3960;51.86894000;5.39848000;2023-04-03T01:30:09;5.13;;;2.67;;
7829;SDS011;3960;51.86894000;5.39848000;2023-04-03T01:32:35;4.25;;;2.20;;
7829;SDS011;3960;51.86894000;5.39848000;2023-04-03T01:35:01;6.07;;;2.20;;
7829;SDS011;3960;51.86894000;5.39848000;2023-04-03T01:37:26;5.78;;;2.20;;
7829;SDS011;3960;51.86894000;5.39848000;2023-04-03T01:39:51;10.57;;;2.50;;
7829;SDS011;3960;51.86894000;5.39848000;2023-04-03T01:42:17;4.93;;;2.33;;
7829;SDS011;3960;51.86894000;5.39848000;2023-04-03T01:44:42;4.28;;;2.35;;
7829;SDS011;3960;51.86894000;5.39848000;2023-04-03T01:47:07;7.50;;;2.72;;
7829;SDS011;3960;51.86894000;5.39848000;2023-04-03T01:49:33;4.93;;;2.20;;
7829;SDS011;3960;51.86894000;5.39848000;2023-04-03T01:51:58;4.47;;;2.50;;
7829;SDS011;3960;51.86894000;5.39848000;2023-04-03T01:54:23;7.63;;;2.42;;
7829;SDS011;3960;51.86894000;5.39848000;2023-04-03T01:56:49;4.93;;;2.25;;
7829;SDS011;3960;51.86894000;5.39848000;2023-04-03T01:59:14;6.88;;;3.03;;
7829;SDS011;3960;51.86894000;5.39848000;2023-04-03T02:01:41;6.30;;;2.70;;
7829;SDS011;3960;51.86894000;5.39848000;2023-04-03T02:04:08;4.85;;;2.75;;
7829;SDS011;3960;51.86894000;5.39848000;2023-04-03T02:06:33;4.18;;;2.53;;
7829;SDS011;3960;51.86894000;5.39848000;2023-04-03T02:08:59;7.45;;;3.15;;
7829;SDS011;3960;51.86894000;5.39848000;2023-04-03T02:11:25;5.88;;;2.47;;
7829;SDS011;3960;51.86894000;5.39848000;2023-04-03T02:13:50;9.02;;;2.97;;
7829;SDS011;3960;51.86894000;5.39848000;2023-04-03T02:16:15;4.53;;;2.53;;
7829;SDS011;3960;51.86894000;5.39848000;2023-04-03T02:18:41;6.10;;;2.47;;
7829;SDS011;3960;51.86894000;5.39848000;2023-04-03T02:21:06;6.32;;;2.53;;
7829;SDS011;3960;51.86894000;5.39848000;2023-04-03T02:23:32;5.32;;;2.65;;
7829;SDS011;3960;51.86894000;5.39848000;2023-04-03T02:26:02;4.47;;;2.42;;
7829;SDS011;3960;51.86894000;5.39848000;2023-04-03T02:28:32;6.35;;;2.38;;
7829;SDS011;3960;51.86894000;5.39848000;2023-04-03T02:30:58;4.32;;;2.53;;
7829;SDS011;3960;51.86894000;5.39848000;2023-04-03T02:33:23;5.90;;;2.63;;
7829;SDS011;3960;51.86894000;5.39848000;2023-04-03T02:35:52;7.70;;;2.40;;
7829;SDS011;3960;51.86894000;5.39848000;2023-04-03T02:38:18;6.35;;;2.20;;
7829;SDS011;3960;51.86894000;5.39848000;2023-04-03T02:40:43;5.22;;;2.55;;
7829;SDS011;3960;51.86894000;5.39848000;2023-04-03T02:43:09;6.93;;;2.15;;
7829;SDS011;3960;51.86894000;5.39848000;2023-04-03T02:45:35;4.15;;;2.28;;
7829;SDS011;3960;51.86894000;5.39848000;2023-04-03T02:48:00;3.95;;;2.25;;
7829;SDS011;3960;51.86894000;5.39848000;2023-04-03T02:50:25;5.95;;;2.22;;
7829;SDS011;3960;51.86894000;5.39848000;2023-04-03T02:52:50;6.70;;;2.28;;
7829;SDS011;3960;51.86894000;5.39848000;2023-04-03T02:55:16;5.15;;;2.05;;
7829;SDS011;3960;51.86894000;5.39848000;2023-04-03T02:57:41;3.97;;;2.25;;
7829;SDS011;3960;51.86894000;5.39848000;2023-04-03T03:00:07;11.23;;;2.30;;
7829;SDS011;3960;51.86894000;5.39848000;2023-04-03T03:02:33;5.47;;;2.00;;
7829;SDS011;3960;51.86894000;5.39848000;2023-04-03T03:04:59;5.53;;;2.15;;
7829;SDS011;3960;51.86894000;5.39848000;2023-04-03T03:07:24;4.43;;;2.00;;
7829;SDS011;3960;51.86894000;5.39848000;2023-04-03T03:09:50;5.03;;;1.98;;
7829;SDS011;3960;51.86894000;5.39848000;2023-04-03T03:12:16;6.82;;;1.95;;
7829;SDS011;3960;51.86894000;5.39848000;2023-04-03T03:14:46;6.72;;;2.10;;
7829;SDS011;3960;51.86894000;5.39848000;2023-04-03T03:17:11;5.00;;;2.08;;
7829;SDS011;3960;51.86894000;5.39848000;2023-04-03T03:19:36;5.40;;;1.98;;
7829;SDS011;3960;51.86894000;5.39848000;2023-04-03T03:22:02;3.78;;;2.25;;
7829;SDS011;3960;51.86894000;5.39848000;2023-04-03T03:24:27;4.70;;;2.20;;
7829;SDS011;3960;51.86894000;5.39848000;2023-04-03T03:26:52;3.22;;;2.10;;
7829;SDS011;3960;51.86894000;5.39848000;2023-04-03T03:29:17;6.65;;;2.22;;
7829;SDS011;3960;51.86894000;5.39848000;2023-04-03T03:31:43;5.45;;;2.25;;
7829;SDS011;3960;51.86894000;5.39848000;2023-04-03T03:34:08;7.32;;;2.15;;
7829;SDS011;3960;51.86894000;5.39848000;2023-04-03T03:36:33;4.72;;;2.00;;
7829;SDS011;3960;51.86894000;5.39848000;2023-04-03T03:38:59;6.57;;;2.72;;
7829;SDS011;3960;51.86894000;5.39848000;2023-04-03T03:41:25;3.17;;;2.03;;
7829;SDS011;3960;51.86894000;5.39848000;2023-04-03T03:43:50;8.63;;;2.42;;
7829;SDS011;3960;51.86894000;5.39848000;2023-04-03T03:46:15;5.22;;;2.20;;
7829;SDS011;3960;51.86894000;5.39848000;2023-04-03T03:48:41;6.47;;;2.88;;
7829;SDS011;3960;51.86894000;5.39848000;2023-04-03T03:51:06;7.85;;;2.30;;
7829;SDS011;3960;51.86894000;5.39848000;2023-04-03T03:53:32;6.28;;;2.30;;
7829;SDS011;3960;51.86894000;5.39848000;2023-04-03T03:55:57;5.18;;;2.30;;
7829;SDS011;3960;51.86894000;5.39848000;2023-04-03T03:58:22;5.82;;;2.65;;
7829;SDS011;3960;51.86894000;5.39848000;2023-04-03T04:00:48;4.97;;;2.60;;
7829;SDS011;3960;51.86894000;5.39848000;2023-04-03T04:03:13;5.90;;;2.58;;
7829;SDS011;3960;51.86894000;5.39848000;2023-04-03T04:05:39;8.73;;;3.05;;
7829;SDS011;3960;51.86894000;5.39848000;2023-04-03T04:08:04;4.80;;;2.22;;
7829;SDS011;3960;51.86894000;5.39848000;2023-04-03T04:10:30;5.75;;;2.90;;
7829;SDS011;3960;51.86894000;5.39848000;2023-04-03T04:12:55;5.03;;;2.25;;
7829;SDS011;3960;51.86894000;5.39848000;2023-04-03T04:15:20;7.75;;;3.33;;
7829;SDS011;3960;51.86894000;5.39848000;2023-04-03T04:17:46;8.65;;;2.85;;
7829;SDS011;3960;51.86894000;5.39848000;2023-04-03T04:20:12;7.40;;;3.00;;
7829;SDS011;3960;51.86894000;5.39848000;2023-04-03T04:22:37;6.43;;;2.70;;
7829;SDS011;3960;51.86894000;5.39848000;2023-04-03T04:25:04;5.25;;;2.17;;
7829;SDS011;3960;51.86894000;5.39848000;2023-04-03T04:27:29;6.97;;;2.28;;
7829;SDS011;3960;51.86894000;5.39848000;2023-04-03T04:29:54;5.63;;;2.47;;
7829;SDS011;3960;51.86894000;5.39848000;2023-04-03T04:32:20;3.97;;;2.28;;
7829;SDS011;3960;51.86894000;5.39848000;2023-04-03T04:34:45;6.03;;;2.60;;
7829;SDS011;3960;51.86894000;5.39848000;2023-04-03T04:37:10;5.57;;;3.00;;
7829;SDS011;3960;51.86894000;5.39848000;2023-04-03T04:39:36;7.28;;;2.80;;
7829;SDS011;3960;51.86894000;5.39848000;2023-04-03T04:42:01;5.72;;;2.97;;
7829;SDS011;3960;51.86894000;5.39848000;2023-04-03T04:44:27;6.00;;;2.85;;
7829;SDS011;3960;51.86894000;5.39848000;2023-04-03T04:46:53;8.48;;;2.92;;
7829;SDS011;3960;51.86894000;5.39848000;2023-04-03T04:49:18;10.88;;;2.92;;
7829;SDS011;3960;51.86894000;5.39848000;2023-04-03T04:51:43;7.00;;;2.83;;
7829;SDS011;3960;51.86894000;5.39848000;2023-04-03T04:54:09;6.75;;;2.55;;
7829;SDS011;3960;51.86894000;5.39848000;2023-04-03T04:56:34;7.22;;;3.03;;
7829;SDS011;3960;51.86894000;5.39848000;2023-04-03T04:59:00;8.18;;;2.80;;
7829;SDS011;3960;51.86894000;5.39848000;2023-04-03T05:01:26;5.07;;;2.60;;
7829;SDS011;3960;51.86894000;5.39848000;2023-04-03T05:03:51;8.70;;;2.88;;
7829;SDS011;3960;51.86894000;5.39848000;2023-04-03T05:06:16;8.02;;;2.97;;
7829;SDS011;3960;51.86894000;5.39848000;2023-04-03T05:08:41;4.65;;;2.55;;
7829;SDS011;3960;51.86894000;5.39848000;2023-04-03T05:11:07;7.10;;;2.95;;
7829;SDS011;3960;51.86894000;5.39848000;2023-04-03T05:13:32;6.38;;;2.70;;
7829;SDS011;3960;51.86894000;5.39848000;2023-04-03T05:15:57;5.95;;;3.05;;
7829;SDS011;3960;51.86894000;5.39848000;2023-04-03T05:18:22;6.82;;;3.03;;
7829;SDS011;3960;51.86894000;5.39848000;2023-04-03T05:20:48;8.60;;;2.90;;
7829;SDS011;3960;51.86894000;5.39848000;2023-04-03T05:23:15;8.40;;;3.05;;
7829;SDS011;3960;51.86894000;5.39848000;2023-04-03T05:25:40;6.90;;;2.72;;
7829;SDS011;3960;51.86894000;5.39848000;2023-04-03T05:28:06;7.88;;;2.70;;
7829;SDS011;3960;51.86894000;5.39848000;2023-04-03T05:30:32;7.93;;;2.55;;
7829;SDS011;3960;51.86894000;5.39848000;2023-04-03T05:32:58;5.93;;;2.67;;
7829;SDS011;3960;51.86894000;5.39848000;2023-04-03T05:35:23;6.72;;;2.80;;
7829;SDS011;3960;51.86894000;5.39848000;2023-04-03T05:37:49;5.63;;;3.28;;
7829;SDS011;3960;51.86894000;5.39848000;2023-04-03T05:40:14;4.22;;;2.67;;
7829;SDS011;3960;51.86894000;5.39848000;2023-04-03T05:42:39;6.90;;;2.90;;
7829;SDS011;3960;51.86894000;5.39848000;2023-04-03T05:45:05;9.48;;;3.10;;
7829;SDS011;3960;51.86894000;5.39848000;2023-04-03T05:47:31;5.22;;;3.00;;
7829;SDS011;3960;51.86894000;5.39848000;2023-04-03T05:49:56;8.90;;;3.17;;
7829;SDS011;3960;51.86894000;5.39848000;2023-04-03T05:52:23;11.27;;;3.60;;
7829;SDS011;3960;51.86894000;5.39848000;2023-04-03T05:54:51;6.68;;;3.67;;
7829;SDS011;3960;51.86894000;5.39848000;2023-04-03T05:57:16;8.65;;;3.15;;
7829;SDS011;3960;51.86894000;5.39848000;2023-04-03T05:59:43;6.18;;;2.92;;
7829;SDS011;3960;51.86894000;5.39848000;2023-04-03T06:02:13;5.75;;;2.63;;
7829;SDS011;3960;51.86894000;5.39848000;2023-04-03T06:04:40;5.75;;;2.22;;
7829;SDS011;3960;51.86894000;5.39848000;2023-04-03T06:07:05;5.35;;;2.22;;
7829;SDS011;3960;51.86894000;5.39848000;2023-04-03T06:09:32;7.70;;;2.38;;
7829;SDS011;3960;51.86894000;5.39848000;2023-04-03T06:11:58;5.20;;;2.42;;
7829;SDS011;3960;51.86894000;5.39848000;2023-04-03T06:14:25;3.70;;;1.98;;
7829;SDS011;3960;51.86894000;5.39848000;2023-04-03T06:16:51;5.05;;;2.13;;
7829;SDS011;3960;51.86894000;5.39848000;2023-04-03T06:19:16;5.43;;;2.10;;
7829;SDS011;3960;51.86894000;5.39848000;2023-04-03T06:21:42;5.03;;;2.08;;
7829;SDS011;3960;51.86894000;5.39848000;2023-04-03T06:24:07;4.95;;;2.25;;
7829;SDS011;3960;51.86894000;5.39848000;2023-04-03T06:26:37;5.63;;;2.20;;
7829;SDS011;3960;51.86894000;5.39848000;2023-04-03T06:29:02;3.90;;;1.90;;
7829;SDS011;3960;51.86894000;5.39848000;2023-04-03T06:31:28;5.53;;;2.45;;
7829;SDS011;3960;51.86894000;5.39848000;2023-04-03T06:33:53;4.75;;;1.77;;
7829;SDS011;3960;51.86894000;5.39848000;2023-04-03T06:36:19;5.82;;;1.90;;
7829;SDS011;3960;51.86894000;5.39848000;2023-04-03T06:38:46;5.82;;;1.90;;
7829;SDS011;3960;51.86894000;5.39848000;2023-04-03T06:41:11;5.47;;;1.85;;
7829;SDS011;3960;51.86894000;5.39848000;2023-04-03T06:43:37;5.43;;;2.05;;
7829;SDS011;3960;51.86894000;5.39848000;2023-04-03T06:46:02;8.60;;;2.08;;
7829;SDS011;3960;51.86894000;5.39848000;2023-04-03T06:48:28;7.22;;;2.67;;
7829;SDS011;3960;51.86894000;5.39848000;2023-04-03T06:50:54;6.28;;;2.08;;
7829;SDS011;3960;51.86894000;5.39848000;2023-04-03T06:53:19;4.03;;;1.55;;
7829;SDS011;3960;51.86894000;5.39848000;2023-04-03T06:55:45;7.43;;;2.05;;
7829;SDS011;3960;51.86894000;5.39848000;2023-04-03T06:58:11;7.72;;;2.13;;
7829;SDS011;3960;51.86894000;5.39848000;2023-04-03T07:00:37;5.40;;;1.98;;
7829;SDS011;3960;51.86894000;5.39848000;2023-04-03T07:03:02;3.30;;;1.73;;
7829;SDS011;3960;51.86894000;5.39848000;2023-04-03T07:05:27;5.90;;;2.03;;
7829;SDS011;3960;51.86894000;5.39848000;2023-04-03T07:07:53;6.75;;;2.22;;
7829;SDS011;3960;51.86894000;5.39848000;2023-04-03T07:10:18;5.47;;;2.20;;
7829;SDS011;3960;51.86894000;5.39848000;2023-04-03T07:12:44;6.38;;;2.20;;
7829;SDS011;3960;51.86894000;5.39848000;2023-04-03T07:15:09;4.35;;;2.05;;
7829;SDS011;3960;51.86894000;5.39848000;2023-04-03T07:17:35;6.88;;;1.83;;
7829;SDS011;3960;51.86894000;5.39848000;2023-04-03T07:20:02;6.15;;;1.92;;
7829;SDS011;3960;51.86894000;5.39848000;2023-04-03T07:22:28;4.38;;;2.00;;
7829;SDS011;3960;51.86894000;5.39848000;2023-04-03T07:24:54;7.80;;;2.00;;
7829;SDS011;3960;51.86894000;5.39848000;2023-04-03T07:27:19;3.33;;;1.65;;
7829;SDS011;3960;51.86894000;5.39848000;2023-04-03T07:29:44;3.70;;;1.80;;
7829;SDS011;3960;51.86894000;5.39848000;2023-04-03T07:32:10;3.17;;;1.50;;
7829;SDS011;3960;51.86894000;5.39848000;2023-04-03T07:34:36;6.50;;;1.75;;
7829;SDS011;3960;51.86894000;5.39848000;2023-04-03T07:37:01;4.88;;;1.58;;
7829;SDS011;3960;51.86894000;5.39848000;2023-04-03T07:39:27;5.95;;;2.83;;
7829;SDS011;3960;51.86894000;5.39848000;2023-04-03T07:41:53;4.38;;;1.55;;
7829;SDS011;3960;51.86894000;5.39848000;2023-04-03T07:44:21;4.30;;;1.40;;
7829;SDS011;3960;51.86894000;5.39848000;2023-04-03T07:46:46;6.35;;;1.85;;
7829;SDS011;3960;51.86894000;5.39848000;2023-04-03T07:49:12;5.55;;;2.53;;
7829;SDS011;3960;51.86894000;5.39848000;2023-04-03T07:51:37;7.25;;;1.80;;
7829;SDS011;3960;51.86894000;5.39848000;2023-04-03T07:54:02;8.00;;;1.95;;
7829;SDS011;3960;51.86894000;5.39848000;2023-04-03T07:56:29;2.72;;;1.60;;
7829;SDS011;3960;51.86894000;5.39848000;2023-04-03T07:58:54;3.83;;;1.70;;
7829;SDS011;3960;51.86894000;5.39848000;2023-04-03T08:01:19;11.13;;;1.80;;
7829;SDS011;3960;51.86894000;5.39848000;2023-04-03T08:03:45;4.28;;;1.90;;
7829;SDS011;3960;51.86894000;5.39848000;2023-04-03T08:06:11;3.55;;;1.25;;
7829;SDS011;3960;51.86894000;5.39848000;2023-04-03T08:08:36;5.38;;;1.65;;
7829;SDS011;3960;51.86894000;5.39848000;2023-04-03T08:11:01;4.25;;;1.65;;
7829;SDS011;3960;51.86894000;5.39848000;2023-04-03T08:13:30;3.70;;;1.63;;
7829;SDS011;3960;51.86894000;5.39848000;2023-04-03T08:15:55;2.13;;;1.20;;
7829;SDS011;3960;51.86894000;5.39848000;2023-04-03T08:18:22;3.22;;;1.77;;
7829;SDS011;3960;51.86894000;5.39848000;2023-04-03T08:20:49;2.92;;;1.63;;
7829;SDS011;3960;51.86894000;5.39848000;2023-04-03T08:23:16;7.93;;;1.90;;
7829;SDS011;3960;51.86894000;5.39848000;2023-04-03T08:25:42;4.93;;;1.30;;
7829;SDS011;3960;51.86894000;5.39848000;2023-04-03T08:28:08;3.88;;;1.17;;
7829;SDS011;3960;51.86894000;5.39848000;2023-04-03T08:30:35;2.95;;;1.27;;
7829;SDS011;3960;51.86894000;5.39848000;2023-04-03T08:33:03;3.22;;;1.25;;
7829;SDS011;3960;51.86894000;5.39848000;2023-04-03T08:35:29;3.72;;;1.40;;
7829;SDS011;3960;51.86894000;5.39848000;2023-04-03T08:37:54;7.00;;;1.40;;
7829;SDS011;3960;51.86894000;5.39848000;2023-04-03T08:40:20;2.42;;;1.20;;
7829;SDS011;3960;51.86894000;5.39848000;2023-04-03T08:48:06;2.40;;;1.15;;
7829;SDS011;3960;51.86894000;5.39848000;2023-04-03T08:50:41;4.15;;;1.35;;
7829;SDS011;3960;51.86894000;5.39848000;2023-04-03T08:53:14;3.58;;;1.38;;
7829;SDS011;3960;51.86894000;5.39848000;2023-04-03T08:58:18;4.00;;;1.30;;
7829;SDS011;3960;51.86894000;5.39848000;2023-04-03T09:03:16;2.35;;;1.30;;
7829;SDS011;3960;51.86894000;5.39848000;2023-04-03T09:08:33;4.60;;;1.40;;
7829;SDS011;3960;51.86894000;5.39848000;2023-04-03T09:11:40;3.13;;;1.27;;
7829;SDS011;3960;51.86894000;5.39848000;2023-04-03T09:16:55;5.15;;;1.20;;
7829;SDS011;3960;51.86894000;5.39848000;2023-04-03T09:24:58;2.65;;;1.13;;
7829;SDS011;3960;51.86894000;5.39848000;2023-04-03T09:27:30;4.72;;;1.35;;
7829;SDS011;3960;51.86894000;5.39848000;2023-04-03T09:29:56;4.50;;;0.57;;
7829;SDS011;3960;51.86894000;5.39848000;2023-04-03T09:32:29;3.15;;;0.90;;
7829;SDS011;3960;51.86894000;5.39848000;2023-04-03T09:34:58;1.48;;;0.80;;
7829;SDS011;3960;51.86894000;5.39848000;2023-04-03T09:37:41;1.88;;;0.90;;
7829;SDS011;3960;51.86894000;5.39848000;2023-04-03T09:43:02;1.55;;;0.98;;
7829;SDS011;3960;51.86894000;5.39848000;2023-04-03T09:45:45;1.52;;;0.65;;
7829;SDS011;3960;51.86894000;5.39848000;2023-04-03T09:50:37;1.75;;;1.02;;
7829;SDS011;3960;51.86894000;5.39848000;2023-04-03T09:53:11;1.27;;;0.80;;
7829;SDS011;3960;51.86894000;5.39848000;2023-04-03T09:55:50;1.60;;;1.02;;
7829;SDS011;3960;51.86894000;5.39848000;2023-04-03T09:58:49;1.65;;;0.77;;
7829;SDS011;3960;51.86894000;5.39848000;2023-04-03T10:01:31;1.52;;;0.88;;
7829;SDS011;3960;51.86894000;5.39848000;2023-04-03T10:04:17;1.77;;;0.70;;
7829;SDS011;3960;51.86894000;5.39848000;2023-04-03T10:06:48;4.30;;;0.60;;
7829;SDS011;3960;51.86894000;5.39848000;2023-04-03T10:11:57;3.85;;;1.15;;
7829;SDS011;3960;51.86894000;5.39848000;2023-04-03T10:14:23;7.22;;;0.85;;
7829;SDS011;3960;51.86894000;5.39848000;2023-04-03T10:16:50;1.75;;;1.25;;
7829;SDS011;3960;51.86894000;5.39848000;2023-04-03T10:19:29;1.92;;;0.70;;
7829;SDS011;3960;51.86894000;5.39848000;2023-04-03T10:22:02;1.30;;;0.68;;
7829;SDS011;3960;51.86894000;5.39848000;2023-04-03T10:27:10;0.65;;;0.50;;
7829;SDS011;3960;51.86894000;5.39848000;2023-04-03T10:32:48;0.80;;;0.40;;
7829;SDS011;3960;51.86894000;5.39848000;2023-04-03T10:41:08;0.50;;;0.30;;
7829;SDS011;3960;51.86894000;5.39848000;2023-04-03T10:44:06;3.67;;;0.75;;
7829;SDS011;3960;51.86894000;5.39848000;2023-04-03T10:46:47;0.88;;;0.47;;
7829;SDS011;3960;51.86894000;5.39848000;2023-04-03T10:57:24;1.02;;;0.85;;
7829;SDS011;3960;51.86894000;5.39848000;2023-04-03T10:59:55;0.75;;;0.50;;
7829;SDS011;3960;51.86894000;5.39848000;2023-04-03T11:02:25;0.85;;;0.47;;
7829;SDS011;3960;51.86894000;5.39848000;2023-04-03T11:04:57;0.65;;;0.30;;
7829;SDS011;3960;51.86894000;5.39848000;2023-04-03T11:07:28;1.42;;;0.60;;
7829;SDS011;3960;51.86894000;5.39848000;2023-04-03T11:10:00;0.85;;;0.68;;
7829;SDS011;3960;51.86894000;5.39848000;2023-04-03T11:12:29;1.13;;;0.73;;
7829;SDS011;3960;51.86894000;5.39848000;2023-04-03T11:15:03;1.90;;;0.60;;
7829;SDS011;3960;51.86894000;5.39848000;2023-04-03T11:17:35;3.67;;;0.52;;
7829;SDS011;3960;51.86894000;5.39848000;2023-04-03T11:20:13;2.97;;;0.80;;
7829;SDS011;3960;51.86894000;5.39848000;2023-04-03T11:22:43;2.42;;;0.70;;
7829;SDS011;3960;51.86894000;5.39848000;2023-04-03T11:25:21;3.80;;;0.98;;
7829;SDS011;3960;51.86894000;5.39848000;2023-04-03T11:27:51;0.75;;;0.38;;
7829;SDS011;3960;51.86894000;5.39848000;2023-04-03T11:30:28;1.63;;;0.68;;
7829;SDS011;3960;51.86894000;5.39848000;2023-04-03T11:35:29;2.38;;;0.85;;
7829;SDS011;3960;51.86894000;5.39848000;2023-04-03T11:37:55;1.73;;;0.80;;
7829;SDS011;3960;51.86894000;5.39848000;2023-04-03T11:40:24;1.38;;;0.65;;
7829;SDS011;3960;51.86894000;5.39848000;2023-04-03T11:45:33;4.30;;;1.15;;
7829;SDS011;3960;51.86894000;5.39848000;2023-04-03T11:48:03;1.08;;;0.80;;
7829;SDS011;3960;51.86894000;5.39848000;2023-04-03T11:50:53;2.03;;;0.85;;
7829;SDS011;3960;51.86894000;5.39848000;2023-04-03T11:53:29;3.88;;;0.90;;
7829;SDS011;3960;51.86894000;5.39848000;2023-04-03T11:58:23;2.30;;;1.08;;
7829;SDS011;3960;51.86894000;5.39848000;2023-04-03T12:00:59;3.10;;;1.20;;
7829;SDS011;3960;51.86894000;5.39848000;2023-04-03T12:05:57;1.13;;;0.50;;
7829;SDS011;3960;51.86894000;5.39848000;2023-04-03T12:24:23;1.40;;;0.90;;
7829;SDS011;3960;51.86894000;5.39848000;2023-04-03T12:40:10;2.33;;;1.10;;
7829;SDS011;3960;51.86894000;5.39848000;2023-04-03T12:45:23;6.18;;;1.20;;
7829;SDS011;3960;51.86894000;5.39848000;2023-04-03T12:47:50;2.58;;;0.93;;
7829;SDS011;3960;51.86894000;5.39848000;2023-04-03T12:50:20;1.45;;;0.95;;
7829;SDS011;3960;51.86894000;5.39848000;2023-04-03T12:53:35;2.35;;;1.27;;
7829;SDS011;3960;51.86894000;5.39848000;2023-04-03T12:55:52;4.15;;;1.10;;
7829;SDS011;3960;51.86894000;5.39848000;2023-04-03T12:58:23;2.80;;;1.10;;
7829;SDS011;3960;51.86894000;5.39848000;2023-04-03T13:01:03;3.25;;;1.17;;
7829;SDS011;3960;51.86894000;5.39848000;2023-04-03T13:03:37;1.48;;;0.70;;
7829;SDS011;3960;51.86894000;5.39848000;2023-04-03T13:06:04;2.08;;;0.98;;
7829;SDS011;3960;51.86894000;5.39848000;2023-04-03T13:08:30;1.95;;;1.30;;
7829;SDS011;3960;51.86894000;5.39848000;2023-04-03T13:13:35;2.55;;;1.15;;
7829;SDS011;3960;51.86894000;5.39848000;2023-04-03T13:16:07;2.63;;;1.23;;
7829;SDS011;3960;51.86894000;5.39848000;2023-04-03T13:18:36;1.92;;;0.98;;
7829;SDS011;3960;51.86894000;5.39848000;2023-04-03T13:21:03;3.58;;;1.20;;
7829;SDS011;3960;51.86894000;5.39848000;2023-04-03T13:23:30;3.63;;;1.10;;
7829;SDS011;3960;51.86894000;5.39848000;2023-04-03T13:25:59;1.58;;;1.10;;
7829;SDS011;3960;51.86894000;5.39848000;2023-04-03T13:28:28;3.10;;;1.15;;
7829;SDS011;3960;51.86894000;5.39848000;2023-04-03T13:33:23;3.22;;;1.08;;
7829;SDS011;3960;51.86894000;5.39848000;2023-04-03T13:36:00;2.03;;;1.23;;
7829;SDS011;3960;51.86894000;5.39848000;2023-04-03T13:38:30;1.95;;;0.90;;
7829;SDS011;3960;51.86894000;5.39848000;2023-04-03T13:40:59;1.50;;;1.10;;
7829;SDS011;3960;51.86894000;5.39848000;2023-04-03T13:43:29;2.47;;;1.02;;
7829;SDS011;3960;51.86894000;5.39848000;2023-04-03T13:48:44;2.05;;;1.23;;
7829;SDS011;3960;51.86894000;5.39848000;2023-04-03T13:51:27;3.45;;;1.25;;
7829;SDS011;3960;51.86894000;5.39848000;2023-04-03T13:53:55;2.80;;;1.40;;
7829;SDS011;3960;51.86894000;5.39848000;2023-04-03T13:56:27;1.92;;;1.02;;
7829;SDS011;3960;51.86894000;5.39848000;2023-04-03T13:59:01;2.60;;;1.20;;
7829;SDS011;3960;51.86894000;5.39848000;2023-04-03T14:01:48;2.33;;;1.20;;
7829;SDS011;3960;51.86894000;5.39848000;2023-04-03T14:04:29;4.10;;;1.00;;
7829;SDS011;3960;51.86894000;5.39848000;2023-04-03T14:06:57;2.25;;;1.08;;
7829;SDS011;3960;51.86894000;5.39848000;2023-04-03T14:09:24;2.47;;;1.20;;
7829;SDS011;3960;51.86894000;5.39848000;2023-04-03T14:11:55;2.17;;;1.13;;
7829;SDS011;3960;51.86894000;5.39848000;2023-04-03T14:14:29;3.70;;;1.50;;
7829;SDS011;3960;51.86894000;5.39848000;2023-04-03T14:16:57;3.80;;;1.48;;
7829;SDS011;3960;51.86894000;5.39848000;2023-04-03T14:22:00;5.72;;;1.50;;
7829;SDS011;3960;51.86894000;5.39848000;2023-04-03T14:24:31;2.75;;;1.17;;
7829;SDS011;3960;51.86894000;5.39848000;2023-04-03T14:26:57;3.40;;;1.20;;
7829;SDS011;3960;51.86894000;5.39848000;2023-04-03T14:29:22;4.95;;;1.95;;
7829;SDS011;3960;51.86894000;5.39848000;2023-04-03T14:31:49;3.40;;;1.40;;
7829;SDS011;3960;51.86894000;5.39848000;2023-04-03T14:34:15;3.38;;;1.20;;
7829;SDS011;3960;51.86894000;5.39848000;2023-04-03T14:36:41;2.33;;;1.20;;
7829;SDS011;3960;51.86894000;5.39848000;2023-04-03T14:39:10;3.85;;;1.38;;
7829;SDS011;3960;51.86894000;5.39848000;2023-04-03T14:41:40;4.65;;;1.60;;
7829;SDS011;3960;51.86894000;5.39848000;2023-04-03T14:44:05;3.50;;;1.23;;
7829;SDS011;3960;51.86894000;5.39848000;2023-04-03T14:46:32;2.00;;;1.50;;
7829;SDS011;3960;51.86894000;5.39848000;2023-04-03T14:49:01;4.32;;;1.60;;
7829;SDS011;3960;51.86894000;5.39848000;2023-04-03T14:51:27;2.17;;;1.15;;
7829;SDS011;3960;51.86894000;5.39848000;2023-04-03T14:53:55;3.03;;;1.50;;
7829;SDS011;3960;51.86894000;5.39848000;2023-04-03T14:56:23;4.55;;;1.33;;
7829;SDS011;3960;51.86894000;5.39848000;2023-04-03T14:58:52;3.13;;;1.50;;
7829;SDS011;3960;51.86894000;5.39848000;2023-04-03T15:01:21;4.43;;;1.52;;
7829;SDS011;3960;51.86894000;5.39848000;2023-04-03T15:03:46;1.85;;;1.20;;
7829;SDS011;3960;51.86894000;5.39848000;2023-04-03T15:06:12;4.57;;;1.60;;
7829;SDS011;3960;51.86894000;5.39848000;2023-04-03T15:08:39;5.38;;;1.40;;